Time;durP1;ratioP1;P1;durP2;ratioP2;P2;SDS_P1;SDS_P2;PMS_P1;PMS_P2;Temp;Humidity;BMP_temperature;BMP_pressure;BME280_temperature;BME280_humidity;BME280_pressure;Samples;Min_cycle;Max_cycle;Signal;HPM_P1;HPM_P2
2023/08/31 00:00:09;;;;;;;8.25;2.70;;;;;;;;;;5037334;28;20172;-69
2023/08/31 00:02:35;;;;;;;8.50;2.90;;;;;;;;;;5033284;28;20039;-68
2023/08/31 00:05:03;;;;;;;8.15;3.05;;;;;;;;;;5037032;28;20098;-68
2023/08/31 00:07:29;;;;;;;9.27;3.08;;;;;;;;;;5036305;28;20526;-68
2023/08/31 00:09:55;;;;;;;9.48;2.95;;;;;;;;;;5035588;28;20693;-68
2023/08/31 00:12:22;;;;;;;10.25;2.83;;;;;;;;;;5033337;28;20032;-68
2023/08/31 00:14:52;;;;;;;9.65;2.40;;;;;;;;;;5034142;28;20063;-67
2023/08/31 00:17:19;;;;;;;10.60;2.20;;;;;;;;;;5033974;28;20033;-68
2023/08/31 00:19:45;;;;;;;8.40;2.50;;;;;;;;;;5028605;28;20479;-68
2023/08/31 00:22:11;;;;;;;7.40;2.60;;;;;;;;;;5030528;28;20106;-68
2023/08/31 00:24:37;;;;;;;7.88;2.55;;;;;;;;;;5034038;28;20577;-68
2023/08/31 00:27:06;;;;;;;7.85;2.47;;;;;;;;;;5040960;28;20605;-68
2023/08/31 00:29:32;;;;;;;7.45;2.17;;;;;;;;;;5029556;28;20065;-68
2023/08/31 00:31:58;;;;;;;8.80;2.47;;;;;;;;;;5034834;28;20130;-68
2023/08/31 00:34:25;;;;;;;9.50;2.45;;;;;;;;;;5040938;28;20734;-68
2023/08/31 00:36:51;;;;;;;7.57;2.63;;;;;;;;;;5038240;28;20328;-68
2023/08/31 00:39:20;;;;;;;7.32;2.53;;;;;;;;;;5040370;28;20036;-68
2023/08/31 00:41:46;;;;;;;9.25;2.50;;;;;;;;;;5039986;28;20475;-68
2023/08/31 00:44:13;;;;;;;6.78;2.10;;;;;;;;;;5038206;28;20048;-68
2023/08/31 00:46:41;;;;;;;8.85;2.30;;;;;;;;;;5036264;28;20031;-68
2023/08/31 00:49:08;;;;;;;7.55;2.10;;;;;;;;;;5038431;28;20032;-68
2023/08/31 00:51:35;;;;;;;7.70;2.50;;;;;;;;;;5038179;28;20063;-68
2023/08/31 00:54:01;;;;;;;9.90;2.90;;;;;;;;;;5037885;28;20539;-68
2023/08/31 00:56:27;;;;;;;9.48;3.00;;;;;;;;;;5031438;28;20055;-68
2023/08/31 00:58:56;;;;;;;9.63;3.08;;;;;;;;;;5034507;28;20032;-68
2023/08/31 01:01:22;;;;;;;8.32;2.70;;;;;;;;;;5034368;28;20067;-68
2023/08/31 01:03:51;;;;;;;9.93;2.47;;;;;;;;;;5040903;28;20078;-68
2023/08/31 01:06:32;;;;;;;9.50;2.58;;;;;;;;;;5034721;28;20141;-68
2023/08/31 01:09:03;;;;;;;8.27;2.45;;;;;;;;;;5038371;28;20028;-68
2023/08/31 01:11:39;;;;;;;8.18;2.50;;;;;;;;;;5032486;28;20381;-68
2023/08/31 01:14:11;;;;;;;8.10;2.47;;;;;;;;;;5032873;28;20810;-68
2023/08/31 01:16:38;;;;;;;9.48;2.35;;;;;;;;;;5034288;28;20513;-68
2023/08/31 01:19:06;;;;;;;8.30;2.70;;;;;;;;;;5038483;28;20105;-68
2023/08/31 01:21:40;;;;;;;7.65;2.33;;;;;;;;;;5034201;28;20043;-68
2023/08/31 01:24:07;;;;;;;8.77;2.50;;;;;;;;;;5038817;28;20296;-68
2023/08/31 01:26:33;;;;;;;7.57;2.60;;;;;;;;;;5029896;28;20024;-68
2023/08/31 01:29:00;;;;;;;8.10;2.60;;;;;;;;;;5034440;28;20059;-68
2023/08/31 01:31:26;;;;;;;6.97;1.80;;;;;;;;;;5033369;28;20440;-68
2023/08/31 01:33:52;;;;;;;7.07;2.38;;;;;;;;;;5033499;28;20087;-68
2023/08/31 01:36:25;;;;;;;7.05;2.50;;;;;;;;;;5034016;28;20039;-68
2023/08/31 01:38:54;;;;;;;7.63;2.40;;;;;;;;;;5036314;28;20790;-68
2023/08/31 01:41:22;;;;;;;7.45;2.55;;;;;;;;;;5030440;28;20132;-68
2023/08/31 01:43:49;;;;;;;8.40;2.70;;;;;;;;;;5037053;28;20134;-68
2023/08/31 01:46:16;;;;;;;7.30;2.13;;;;;;;;;;5036521;28;20358;-68
2023/08/31 01:48:42;;;;;;;7.80;2.13;;;;;;;;;;5033659;28;20040;-68
2023/08/31 01:51:09;;;;;;;6.90;2.20;;;;;;;;;;5040070;28;20036;-68
2023/08/31 01:53:35;;;;;;;7.30;2.30;;;;;;;;;;5035980;28;20244;-68
2023/08/31 01:56:02;;;;;;;10.73;2.50;;;;;;;;;;5034297;28;20071;-68
2023/08/31 01:58:28;;;;;;;6.65;2.20;;;;;;;;;;5032857;28;20041;-69
2023/08/31 02:00:54;;;;;;;8.00;2.33;;;;;;;;;;5034240;28;20041;-68
2023/08/31 02:03:20;;;;;;;8.52;2.60;;;;;;;;;;5030899;28;20386;-68
2023/08/31 02:05:46;;;;;;;7.97;2.40;;;;;;;;;;5037348;28;20040;-68
2023/08/31 02:08:16;;;;;;;8.05;2.63;;;;;;;;;;5033283;28;20028;-68
2023/08/31 02:10:42;;;;;;;9.13;2.60;;;;;;;;;;5029728;28;20024;-68
2023/08/31 02:13:09;;;;;;;9.52;2.88;;;;;;;;;;5034383;28;20639;-68
2023/08/31 02:15:37;;;;;;;7.38;2.30;;;;;;;;;;5032279;28;20032;-68
2023/08/31 02:18:04;;;;;;;7.40;2.25;;;;;;;;;;5032120;28;20041;-68
2023/08/31 02:20:30;;;;;;;7.78;2.67;;;;;;;;;;5035636;28;20059;-68
2023/08/31 02:22:56;;;;;;;9.38;2.75;;;;;;;;;;5037457;28;20082;-68
2023/08/31 02:25:23;;;;;;;7.63;2.22;;;;;;;;;;5030328;28;20032;-68
2023/08/31 02:27:49;;;;;;;9.52;2.55;;;;;;;;;;5032124;28;20043;-68
2023/08/31 02:30:16;;;;;;;7.35;2.30;;;;;;;;;;5038337;28;20048;-68
2023/08/31 02:32:42;;;;;;;7.47;2.47;;;;;;;;;;5041308;28;20739;-68
2023/08/31 02:35:09;;;;;;;8.20;2.33;;;;;;;;;;5036930;28;20743;-68
2023/08/31 02:37:35;;;;;;;8.95;2.42;;;;;;;;;;5028937;28;20043;-69
2023/08/31 02:40:02;;;;;;;9.70;2.92;;;;;;;;;;5030467;28;20103;-69
2023/08/31 02:42:28;;;;;;;10.35;3.05;;;;;;;;;;5029798;28;20032;-69
2023/08/31 02:44:54;;;;;;;9.02;2.83;;;;;;;;;;5031362;28;20049;-68
2023/08/31 02:47:20;;;;;;;8.50;2.60;;;;;;;;;;5032202;28;20724;-70
2023/08/31 02:49:47;;;;;;;8.07;2.40;;;;;;;;;;5037730;28;20507;-69
2023/08/31 02:52:14;;;;;;;7.47;2.20;;;;;;;;;;5031424;28;20561;-69
2023/08/31 02:54:40;;;;;;;6.65;2.08;;;;;;;;;;5035381;28;21624;-69
2023/08/31 02:57:06;;;;;;;11.55;2.80;;;;;;;;;;5035485;28;20020;-68
2023/08/31 02:59:35;;;;;;;9.05;2.25;;;;;;;;;;5029693;28;20032;-68
2023/08/31 03:02:02;;;;;;;10.40;2.38;;;;;;;;;;5036391;28;20571;-68
2023/08/31 03:04:28;;;;;;;9.23;2.42;;;;;;;;;;5034079;28;20509;-67
2023/08/31 03:06:54;;;;;;;8.25;2.70;;;;;;;;;;5037950;28;20584;-69
2023/08/31 03:09:20;;;;;;;9.02;2.60;;;;;;;;;;5033967;28;20375;-69
2023/08/31 03:11:47;;;;;;;9.25;2.40;;;;;;;;;;5036911;28;20037;-68
2023/08/31 03:14:13;;;;;;;8.43;2.53;;;;;;;;;;5035157;28;20041;-69
2023/08/31 03:16:39;;;;;;;8.90;2.38;;;;;;;;;;5035212;28;20087;-68
2023/08/31 03:19:06;;;;;;;8.57;2.38;;;;;;;;;;5035022;28;20037;-68
2023/08/31 03:21:33;;;;;;;10.57;2.60;;;;;;;;;;5033070;28;20124;-69
2023/08/31 03:24:00;;;;;;;10.88;2.28;;;;;;;;;;5038111;28;20049;-68
2023/08/31 03:26:26;;;;;;;7.97;2.22;;;;;;;;;;5032420;28;20045;-68
2023/08/31 03:28:52;;;;;;;8.98;2.50;;;;;;;;;;5040481;28;20390;-68
2023/08/31 03:31:18;;;;;;;8.30;2.47;;;;;;;;;;5038814;28;20021;-68
2023/08/31 03:33:44;;;;;;;9.55;2.83;;;;;;;;;;5037629;28;20040;-71
2023/08/31 03:36:10;;;;;;;10.20;2.60;;;;;;;;;;5035585;28;20033;-68
2023/08/31 03:38:37;;;;;;;7.22;2.15;;;;;;;;;;5037502;28;20048;-68
2023/08/31 03:41:04;;;;;;;9.52;2.53;;;;;;;;;;5035479;28;20052;-68
2023/08/31 03:43:30;;;;;;;12.70;2.53;;;;;;;;;;5032705;28;20111;-68
2023/08/31 03:45:57;;;;;;;8.80;2.55;;;;;;;;;;5040315;28;20036;-67
2023/08/31 03:48:24;;;;;;;8.13;2.55;;;;;;;;;;5029824;28;20032;-68
2023/08/31 03:50:51;;;;;;;7.72;2.33;;;;;;;;;;5037744;28;20103;-70
2023/08/31 03:53:17;;;;;;;7.35;2.35;;;;;;;;;;5037924;28;20027;-68
2023/08/31 03:55:43;;;;;;;8.85;2.72;;;;;;;;;;5033676;28;20036;-67
2023/08/31 03:58:09;;;;;;;9.32;2.35;;;;;;;;;;5035314;28;20036;-67
2023/08/31 04:00:35;;;;;;;7.38;2.10;;;;;;;;;;5032902;28;20356;-67
2023/08/31 04:03:01;;;;;;;6.13;1.90;;;;;;;;;;5037142;28;20145;-67
2023/08/31 04:05:28;;;;;;;8.35;2.40;;;;;;;;;;5035435;28;20087;-67
2023/08/31 04:07:54;;;;;;;8.60;2.38;;;;;;;;;;5040167;28;20083;-68
2023/08/31 04:10:21;;;;;;;8.65;2.58;;;;;;;;;;5035464;28;20025;-67
2023/08/31 04:12:47;;;;;;;8.63;2.33;;;;;;;;;;5039782;28;20121;-68
2023/08/31 04:15:14;;;;;;;9.30;2.85;;;;;;;;;;5038686;28;20133;-68
2023/08/31 04:17:40;;;;;;;8.93;2.40;;;;;;;;;;5032159;28;25060;-67
2023/08/31 04:20:06;;;;;;;8.25;2.53;;;;;;;;;;5036446;28;20036;-67
2023/08/31 04:22:32;;;;;;;7.72;2.53;;;;;;;;;;5037665;28;20037;-68
2023/08/31 04:24:59;;;;;;;9.43;2.60;;;;;;;;;;5033610;28;20513;-67
2023/08/31 04:27:25;;;;;;;7.03;2.15;;;;;;;;;;5034713;28;20033;-67
2023/08/31 04:29:51;;;;;;;10.38;2.63;;;;;;;;;;5036607;28;20488;-70
2023/08/31 04:32:18;;;;;;;10.48;2.50;;;;;;;;;;5037933;28;20068;-68
2023/08/31 04:34:44;;;;;;;10.70;2.90;;;;;;;;;;5039777;28;20032;-68
2023/08/31 04:37:10;;;;;;;7.78;2.40;;;;;;;;;;5038015;28;20040;-67
2023/08/31 04:39:36;;;;;;;9.40;2.58;;;;;;;;;;5035186;28;20016;-67
2023/08/31 04:42:02;;;;;;;10.25;2.58;;;;;;;;;;5035060;28;20028;-67
2023/08/31 04:44:28;;;;;;;9.73;2.97;;;;;;;;;;5033643;28;20821;-67
2023/08/31 04:46:54;;;;;;;7.60;2.70;;;;;;;;;;5041766;28;20044;-69
2023/08/31 04:49:21;;;;;;;7.68;2.22;;;;;;;;;;5038303;28;20089;-68
2023/08/31 04:51:47;;;;;;;10.20;2.58;;;;;;;;;;5038149;28;20055;-67
2023/08/31 04:54:13;;;;;;;10.57;2.45;;;;;;;;;;5039400;28;20099;-67
2023/08/31 04:56:39;;;;;;;9.40;2.58;;;;;;;;;;5032988;28;20037;-67
2023/08/31 04:59:05;;;;;;;8.23;2.70;;;;;;;;;;5037534;28;20497;-68
2023/08/31 05:01:32;;;;;;;9.73;2.80;;;;;;;;;;5037102;28;20036;-68
2023/08/31 05:03:58;;;;;;;7.88;2.60;;;;;;;;;;5040770;28;20060;-68
2023/08/31 05:06:25;;;;;;;12.18;3.22;;;;;;;;;;5033236;28;20522;-68
2023/08/31 05:08:51;;;;;;;7.60;2.28;;;;;;;;;;5035113;28;20107;-68
2023/08/31 05:11:17;;;;;;;11.32;2.28;;;;;;;;;;5036297;28;20064;-68
2023/08/31 05:13:43;;;;;;;8.75;2.47;;;;;;;;;;5034621;28;20036;-68
2023/08/31 05:16:09;;;;;;;7.25;2.13;;;;;;;;;;5041127;28;20037;-67
2023/08/31 05:18:36;;;;;;;8.75;2.20;;;;;;;;;;5036801;28;20032;-68
2023/08/31 05:21:03;;;;;;;7.35;2.10;;;;;;;;;;5037411;28;20123;-68
2023/08/31 05:23:29;;;;;;;9.05;2.40;;;;;;;;;;5031405;28;20327;-68
2023/08/31 05:26:01;;;;;;;6.47;2.13;;;;;;;;;;5035121;28;20035;-70
2023/08/31 05:28:27;;;;;;;10.52;2.40;;;;;;;;;;5032501;28;20489;-68
2023/08/31 05:30:54;;;;;;;7.68;2.30;;;;;;;;;;5037040;28;20370;-68
2023/08/31 05:33:22;;;;;;;8.43;2.00;;;;;;;;;;5029869;28;20471;-68
2023/08/31 05:35:48;;;;;;;9.13;2.40;;;;;;;;;;5030995;28;20175;-68
2023/08/31 05:38:14;;;;;;;8.18;2.58;;;;;;;;;;5034758;28;20055;-68
2023/08/31 05:40:46;;;;;;;9.93;2.67;;;;;;;;;;5033032;28;20498;-68
2023/08/31 05:43:12;;;;;;;7.78;2.50;;;;;;;;;;5038165;28;20297;-68
2023/08/31 05:45:38;;;;;;;7.57;2.28;;;;;;;;;;5036170;28;20037;-68
2023/08/31 05:48:05;;;;;;;9.18;2.55;;;;;;;;;;5035844;28;20040;-68
2023/08/31 05:50:31;;;;;;;6.57;2.33;;;;;;;;;;5034654;28;20124;-67
2023/08/31 05:52:57;;;;;;;7.97;2.65;;;;;;;;;;5036475;28;20037;-68
2023/08/31 05:55:24;;;;;;;8.98;3.00;;;;;;;;;;5029037;28;20029;-68
2023/08/31 05:57:50;;;;;;;10.18;3.60;;;;;;;;;;5034132;28;20044;-68
2023/08/31 06:00:16;;;;;;;10.68;3.15;;;;;;;;;;5030822;28;20024;-67
2023/08/31 06:02:44;;;;;;;8.60;3.25;;;;;;;;;;5032647;28;20239;-70
2023/08/31 06:05:16;;;;;;;8.13;2.80;;;;;;;;;;5036069;28;20102;-68
2023/08/31 06:07:42;;;;;;;9.30;3.10;;;;;;;;;;5031402;28;20033;-67
2023/08/31 06:10:08;;;;;;;9.48;3.00;;;;;;;;;;5037517;28;20027;-67
2023/08/31 06:12:35;;;;;;;8.65;2.90;;;;;;;;;;5039746;28;20055;-68
2023/08/31 06:15:01;;;;;;;9.27;2.60;;;;;;;;;;5037550;28;20044;-68
2023/08/31 06:17:27;;;;;;;9.40;2.53;;;;;;;;;;5031017;28;20119;-68
2023/08/31 06:19:53;;;;;;;11.13;2.45;;;;;;;;;;5040109;28;20523;-68
2023/08/31 06:22:21;;;;;;;9.02;2.88;;;;;;;;;;5035542;28;20774;-70
2023/08/31 06:24:47;;;;;;;7.22;2.47;;;;;;;;;;5038577;28;20028;-68
2023/08/31 06:27:15;;;;;;;8.65;2.78;;;;;;;;;;5040897;28;20040;-67
2023/08/31 06:29:42;;;;;;;9.75;2.67;;;;;;;;;;5036180;28;20017;-67
2023/08/31 06:32:08;;;;;;;9.13;3.03;;;;;;;;;;5037674;28;20029;-67
2023/08/31 06:34:34;;;;;;;11.73;3.58;;;;;;;;;;5034218;28;20035;-67
2023/08/31 06:37:01;;;;;;;12.40;3.72;;;;;;;;;;5037524;28;20159;-70
2023/08/31 06:39:27;;;;;;;9.15;3.55;;;;;;;;;;5037408;28;20040;-68
2023/08/31 06:41:53;;;;;;;9.02;3.13;;;;;;;;;;5040359;28;20079;-68
2023/08/31 06:44:19;;;;;;;8.88;2.85;;;;;;;;;;5036814;28;20040;-68
2023/08/31 06:46:45;;;;;;;8.55;2.65;;;;;;;;;;5036649;28;20376;-68
2023/08/31 06:49:11;;;;;;;8.15;2.80;;;;;;;;;;5033901;28;20429;-68
2023/08/31 06:51:38;;;;;;;10.68;3.50;;;;;;;;;;5032729;28;20545;-68
2023/08/31 06:54:07;;;;;;;9.35;2.90;;;;;;;;;;5036158;28;20479;-69
2023/08/31 06:56:34;;;;;;;12.38;3.42;;;;;;;;;;5039417;28;20033;-69
2023/08/31 06:59:00;;;;;;;11.43;3.42;;;;;;;;;;5044128;28;20376;-69
2023/08/31 07:01:28;;;;;;;10.52;3.10;;;;;;;;;;5040934;28;20424;-69
2023/08/31 07:03:54;;;;;;;10.90;3.53;;;;;;;;;;5039986;28;20528;-69
2023/08/31 07:06:20;;;;;;;11.63;3.60;;;;;;;;;;5043248;28;20147;-69
2023/08/31 07:08:47;;;;;;;10.43;3.55;;;;;;;;;;5049130;28;20068;-69
2023/08/31 07:11:14;;;;;;;10.40;3.20;;;;;;;;;;5042826;28;20924;-69
2023/08/31 07:13:41;;;;;;;10.55;3.45;;;;;;;;;;5042719;28;21427;-68
2023/08/31 07:16:07;;;;;;;12.93;2.97;;;;;;;;;;5040917;28;20481;-69
2023/08/31 07:18:33;;;;;;;7.60;2.47;;;;;;;;;;5036788;28;20386;-69
2023/08/31 07:20:59;;;;;;;14.30;3.28;;;;;;;;;;5040033;28;20459;-67
2023/08/31 07:23:26;;;;;;;9.52;2.90;;;;;;;;;;5038506;28;20604;-67
2023/08/31 07:25:52;;;;;;;12.95;3.53;;;;;;;;;;5038558;28;20970;-67
2023/08/31 07:28:18;;;;;;;13.60;4.05;;;;;;;;;;5041680;28;20036;-68
2023/08/31 07:30:44;;;;;;;11.15;3.50;;;;;;;;;;5037801;28;20043;-68
2023/08/31 07:33:10;;;;;;;9.50;2.72;;;;;;;;;;5037100;28;20025;-68
2023/08/31 07:35:38;;;;;;;11.02;3.03;;;;;;;;;;5037754;28;20505;-68
2023/08/31 07:38:04;;;;;;;10.25;3.40;;;;;;;;;;5040917;28;20047;-68
2023/08/31 07:40:30;;;;;;;11.27;2.92;;;;;;;;;;5035279;28;20324;-68
2023/08/31 07:42:56;;;;;;;11.63;3.47;;;;;;;;;;5037406;28;20393;-68
2023/08/31 07:45:23;;;;;;;8.80;2.70;;;;;;;;;;5036368;28;20033;-68
2023/08/31 07:47:49;;;;;;;9.93;2.63;;;;;;;;;;5044266;28;20473;-68
2023/08/31 07:50:15;;;;;;;9.98;2.72;;;;;;;;;;5038017;28;20086;-68
2023/08/31 07:52:41;;;;;;;7.88;2.28;;;;;;;;;;5035272;28;20037;-68
2023/08/31 07:55:08;;;;;;;8.65;2.60;;;;;;;;;;5037429;28;20159;-68
2023/08/31 07:57:34;;;;;;;8.90;2.22;;;;;;;;;;5036860;28;20063;-68
2023/08/31 08:00:00;;;;;;;8.43;2.50;;;;;;;;;;5037015;28;20519;-68
2023/08/31 08:02:26;;;;;;;9.57;2.80;;;;;;;;;;5037718;28;20794;-68
2023/08/31 08:04:52;;;;;;;6.43;1.90;;;;;;;;;;5038954;28;20025;-68
2023/08/31 08:07:18;;;;;;;7.20;2.03;;;;;;;;;;5038740;28;20478;-68
2023/08/31 08:09:45;;;;;;;7.15;1.92;;;;;;;;;;5035084;28;20091;-69
2023/08/31 08:12:11;;;;;;;7.35;2.28;;;;;;;;;;5043416;28;20097;-69
2023/08/31 08:14:37;;;;;;;6.88;2.10;;;;;;;;;;5039456;28;20381;-69
2023/08/31 08:17:03;;;;;;;8.63;2.42;;;;;;;;;;5037038;28;20131;-68
2023/08/31 08:19:29;;;;;;;10.43;2.50;;;;;;;;;;5031706;28;20086;-68
2023/08/31 08:21:55;;;;;;;7.85;2.10;;;;;;;;;;5039434;28;20106;-69
2023/08/31 08:24:21;;;;;;;7.75;2.03;;;;;;;;;;5037652;28;20059;-68
2023/08/31 08:26:47;;;;;;;6.78;2.00;;;;;;;;;;5041892;28;20074;-69
2023/08/31 08:29:13;;;;;;;7.20;1.88;;;;;;;;;;5037982;28;20356;-68
2023/08/31 08:31:40;;;;;;;7.43;2.10;;;;;;;;;;5036365;28;20036;-68
2023/08/31 08:34:06;;;;;;;9.38;2.00;;;;;;;;;;5039557;28;20040;-68
2023/08/31 08:36:32;;;;;;;7.88;2.00;;;;;;;;;;5034705;28;20040;-69
2023/08/31 08:38:58;;;;;;;5.78;1.77;;;;;;;;;;5036898;28;20591;-68
2023/08/31 08:41:25;;;;;;;7.32;2.10;;;;;;;;;;5037307;28;20024;-68
2023/08/31 08:43:52;;;;;;;5.97;1.77;;;;;;;;;;5035116;28;20078;-69
2023/08/31 08:46:18;;;;;;;7.35;2.00;;;;;;;;;;5040330;28;20032;-68
2023/08/31 08:48:47;;;;;;;7.35;1.90;;;;;;;;;;5032780;28;20051;-68
2023/08/31 08:51:14;;;;;;;8.95;2.03;;;;;;;;;;5039565;28;20199;-68
2023/08/31 08:53:44;;;;;;;7.00;1.98;;;;;;;;;;5028317;28;22651;-68
2023/08/31 08:56:10;;;;;;;7.32;1.75;;;;;;;;;;5044668;28;20633;-68
2023/08/31 08:58:36;;;;;;;8.77;2.25;;;;;;;;;;5040384;28;20103;-68
2023/08/31 09:01:02;;;;;;;9.90;2.35;;;;;;;;;;5036680;28;20343;-68
2023/08/31 09:03:29;;;;;;;7.63;2.13;;;;;;;;;;5034835;28;20477;-68
2023/08/31 09:05:55;;;;;;;6.97;2.10;;;;;;;;;;5042768;28;20055;-68
2023/08/31 09:08:28;;;;;;;9.52;2.65;;;;;;;;;;5033477;28;21088;-68
2023/08/31 09:10:58;;;;;;;6.45;2.10;;;;;;;;;;5042380;28;20490;-68
2023/08/31 09:13:29;;;;;;;8.52;2.00;;;;;;;;;;5037156;28;20448;-68
2023/08/31 09:15:55;;;;;;;8.55;2.20;;;;;;;;;;5045010;28;20041;-69
2023/08/31 09:18:28;;;;;;;7.55;1.88;;;;;;;;;;5031545;28;20021;-68
2023/08/31 09:20:56;;;;;;;7.43;1.80;;;;;;;;;;5041931;28;20053;-68
2023/08/31 09:23:22;;;;;;;8.43;2.45;;;;;;;;;;5037503;28;20059;-68
2023/08/31 09:25:49;;;;;;;8.20;2.15;;;;;;;;;;5041781;28;20059;-67
2023/08/31 09:28:20;;;;;;;7.03;1.98;;;;;;;;;;5034070;28;20021;-70
2023/08/31 09:30:47;;;;;;;8.10;2.17;;;;;;;;;;5039414;28;20037;-67
2023/08/31 09:33:18;;;;;;;6.43;1.67;;;;;;;;;;5046018;28;20025;-70
2023/08/31 09:35:51;;;;;;;6.32;1.85;;;;;;;;;;5035501;28;20047;-68
2023/08/31 09:38:17;;;;;;;6.68;2.10;;;;;;;;;;5047684;28;20019;-68
2023/08/31 09:40:43;;;;;;;7.50;1.95;;;;;;;;;;5030870;28;20059;-68
2023/08/31 09:43:09;;;;;;;8.13;2.10;;;;;;;;;;5038704;28;20044;-68
2023/08/31 09:45:36;;;;;;;7.53;2.10;;;;;;;;;;5038703;28;20152;-68
2023/08/31 09:48:04;;;;;;;7.85;2.05;;;;;;;;;;5042013;28;20050;-67
2023/08/31 09:50:31;;;;;;;6.15;2.08;;;;;;;;;;5037501;28;20040;-67
2023/08/31 09:53:01;;;;;;;6.28;1.77;;;;;;;;;;5039813;28;20024;-67
2023/08/31 09:55:31;;;;;;;8.55;2.13;;;;;;;;;;5032928;28;20035;-68
2023/08/31 09:58:02;;;;;;;8.20;2.10;;;;;;;;;;5042315;28;20036;-67
2023/08/31 10:00:29;;;;;;;6.72;1.98;;;;;;;;;;5039156;28;20371;-68
2023/08/31 10:02:57;;;;;;;6.78;1.90;;;;;;;;;;5039302;28;20032;-68
2023/08/31 10:05:24;;;;;;;7.05;2.00;;;;;;;;;;5034073;28;20046;-68
2023/08/31 10:07:54;;;;;;;6.75;1.83;;;;;;;;;;5045450;28;20143;-68
2023/08/31 10:10:22;;;;;;;6.45;1.80;;;;;;;;;;5044807;28;20049;-68
2023/08/31 10:12:49;;;;;;;7.82;1.90;;;;;;;;;;5042618;28;20395;-68
2023/08/31 10:15:19;;;;;;;6.97;1.92;;;;;;;;;;5044266;28;20207;-68
2023/08/31 10:17:46;;;;;;;7.72;1.90;;;;;;;;;;5036955;28;20901;-68
2023/08/31 10:20:13;;;;;;;6.55;1.95;;;;;;;;;;5043692;28;20258;-68
2023/08/31 10:22:39;;;;;;;6.75;1.95;;;;;;;;;;5034964;28;20021;-68
2023/08/31 10:25:06;;;;;;;6.50;1.98;;;;;;;;;;5038957;28;20109;-68
2023/08/31 10:27:39;;;;;;;5.95;1.60;;;;;;;;;;5041141;28;20139;-68
2023/08/31 10:30:15;;;;;;;7.97;1.90;;;;;;;;;;5040446;28;20286;-68
2023/08/31 10:32:41;;;;;;;6.07;1.80;;;;;;;;;;5037954;28;20861;-68
2023/08/31 10:35:09;;;;;;;7.15;1.77;;;;;;;;;;5039329;28;20241;-68
2023/08/31 10:37:35;;;;;;;7.00;1.90;;;;;;;;;;5042451;28;20091;-69
2023/08/31 10:40:14;;;;;;;16.80;2.95;;;;;;;;;;5042213;28;20095;-69
2023/08/31 10:42:44;;;;;;;6.32;1.85;;;;;;;;;;5033308;28;20056;-68
2023/08/31 10:45:10;;;;;;;6.43;1.83;;;;;;;;;;5049730;28;20552;-69
2023/08/31 10:47:41;;;;;;;6.63;1.80;;;;;;;;;;5042100;28;20055;-68
2023/08/31 10:50:17;;;;;;;5.65;1.92;;;;;;;;;;5041604;28;20579;-68
2023/08/31 10:52:45;;;;;;;8.75;1.98;;;;;;;;;;5042683;28;20487;-68
2023/08/31 10:55:12;;;;;;;6.18;1.60;;;;;;;;;;5045077;28;20605;-68
2023/08/31 10:57:39;;;;;;;9.80;1.73;;;;;;;;;;5044713;28;20408;-68
2023/08/31 11:00:06;;;;;;;6.82;2.00;;;;;;;;;;5044178;28;20328;-68
2023/08/31 11:02:39;;;;;;;5.53;1.60;;;;;;;;;;5043115;28;20021;-67
2023/08/31 11:05:16;;;;;;;7.90;2.00;;;;;;;;;;5046572;28;20036;-69
2023/08/31 11:07:42;;;;;;;6.10;1.67;;;;;;;;;;5042570;28;20031;-68
2023/08/31 11:10:14;;;;;;;6.65;1.90;;;;;;;;;;5046399;28;20023;-69
2023/08/31 11:12:41;;;;;;;6.38;1.77;;;;;;;;;;5043029;28;20047;-68
2023/08/31 11:15:08;;;;;;;8.27;1.80;;;;;;;;;;5042238;28;20348;-68
2023/08/31 11:17:34;;;;;;;5.20;1.70;;;;;;;;;;5043106;28;20025;-69
2023/08/31 11:20:05;;;;;;;7.18;1.90;;;;;;;;;;5046263;28;20377;-68
2023/08/31 11:22:32;;;;;;;7.30;1.55;;;;;;;;;;5038706;28;20074;-68
2023/08/31 11:24:58;;;;;;;6.13;1.70;;;;;;;;;;5039694;28;20028;-68
2023/08/31 11:27:24;;;;;;;5.30;1.75;;;;;;;;;;5036714;28;20029;-68
2023/08/31 11:29:50;;;;;;;6.28;1.80;;;;;;;;;;5037601;28;20638;-68
2023/08/31 11:32:16;;;;;;;5.40;1.83;;;;;;;;;;5041152;28;20374;-67
2023/08/31 11:34:44;;;;;;;5.40;1.63;;;;;;;;;;5037888;28;20037;-70
2023/08/31 11:37:11;;;;;;;6.18;1.70;;;;;;;;;;5044567;28;20041;-70
2023/08/31 11:39:39;;;;;;;6.78;1.52;;;;;;;;;;5039962;28;20170;-68
2023/08/31 11:42:06;;;;;;;6.55;1.70;;;;;;;;;;5040854;28;20112;-68
2023/08/31 11:44:32;;;;;;;5.78;1.67;;;;;;;;;;5040486;28;20056;-68
2023/08/31 11:46:58;;;;;;;5.72;1.67;;;;;;;;;;5041164;28;20532;-68
2023/08/31 11:49:26;;;;;;;7.93;2.03;;;;;;;;;;5038106;28;20020;-68
2023/08/31 11:51:53;;;;;;;8.30;2.00;;;;;;;;;;5043089;28;20042;-68
2023/08/31 11:54:19;;;;;;;5.35;1.55;;;;;;;;;;5038724;28;20036;-67
2023/08/31 11:56:50;;;;;;;5.80;1.83;;;;;;;;;;5044872;28;20040;-68
2023/08/31 11:59:17;;;;;;;5.15;1.40;;;;;;;;;;5038673;28;20032;-69
2023/08/31 12:01:44;;;;;;;7.03;1.90;;;;;;;;;;5033965;28;20033;-69
2023/08/31 12:04:11;;;;;;;6.55;1.80;;;;;;;;;;5039861;28;20032;-69
2023/08/31 12:06:37;;;;;;;8.65;1.75;;;;;;;;;;5037915;28;20587;-69
2023/08/31 12:09:05;;;;;;;7.45;1.63;;;;;;;;;;5044798;28;20489;-69
2023/08/31 12:11:31;;;;;;;6.72;1.80;;;;;;;;;;5038601;28;20063;-69
2023/08/31 12:14:03;;;;;;;4.15;1.35;;;;;;;;;;5037200;28;20920;-69
2023/08/31 12:16:33;;;;;;;5.82;1.85;;;;;;;;;;5034513;28;20128;-69
2023/08/31 12:19:00;;;;;;;8.80;2.05;;;;;;;;;;5041014;28;20134;-69
2023/08/31 12:21:26;;;;;;;6.35;1.95;;;;;;;;;;5034663;28;20048;-70
2023/08/31 12:23:52;;;;;;;9.68;1.90;;;;;;;;;;5036955;28;20020;-69
2023/08/31 12:26:18;;;;;;;6.75;2.00;;;;;;;;;;5037903;28;20403;-70
2023/08/31 12:28:44;;;;;;;5.57;1.70;;;;;;;;;;5036877;28;20590;-69
2023/08/31 12:31:11;;;;;;;6.30;1.80;;;;;;;;;;5036664;28;20032;-69
2023/08/31 12:33:37;;;;;;;6.43;1.88;;;;;;;;;;5034672;28;20067;-69
2023/08/31 12:36:03;;;;;;;8.50;1.90;;;;;;;;;;5037983;28;20032;-69
2023/08/31 12:38:29;;;;;;;6.78;1.80;;;;;;;;;;5036767;28;20140;-69
2023/08/31 12:40:55;;;;;;;6.15;1.80;;;;;;;;;;5035246;28;20771;-69
2023/08/31 12:43:22;;;;;;;10.50;2.10;;;;;;;;;;5032722;28;20499;-69
2023/08/31 12:45:48;;;;;;;9.50;1.92;;;;;;;;;;5037131;28;20288;-69
2023/08/31 12:48:14;;;;;;;7.72;1.95;;;;;;;;;;5035666;28;20382;-69
2023/08/31 12:50:40;;;;;;;6.55;1.75;;;;;;;;;;5034527;28;20021;-68
2023/08/31 12:53:06;;;;;;;5.78;1.70;;;;;;;;;;5031080;28;20486;-68
2023/08/31 12:55:33;;;;;;;5.70;1.60;;;;;;;;;;5033453;28;20260;-68
2023/08/31 12:57:59;;;;;;;5.78;1.83;;;;;;;;;;5035783;28;20081;-68
2023/08/31 13:00:25;;;;;;;7.63;1.80;;;;;;;;;;5034609;28;20293;-68
2023/08/31 13:02:51;;;;;;;5.90;1.83;;;;;;;;;;5039767;28;20135;-68
2023/08/31 13:05:17;;;;;;;5.57;1.60;;;;;;;;;;5035058;28;20036;-68
2023/08/31 13:07:44;;;;;;;5.53;1.65;;;;;;;;;;5033844;28;20036;-69
2023/08/31 13:10:10;;;;;;;7.35;1.77;;;;;;;;;;5041628;28;20028;-68
2023/08/31 13:12:37;;;;;;;6.90;1.60;;;;;;;;;;5037105;28;20207;-77
2023/08/31 13:15:03;;;;;;;5.97;1.90;;;;;;;;;;5040272;28;20029;-75
2023/08/31 13:17:30;;;;;;;5.40;1.55;;;;;;;;;;5036980;28;20044;-75
2023/08/31 13:19:57;;;;;;;5.20;1.40;;;;;;;;;;5035581;28;20063;-75
2023/08/31 13:22:23;;;;;;;5.22;1.60;;;;;;;;;;5034100;28;20112;-74
2023/08/31 13:24:52;;;;;;;7.10;1.60;;;;;;;;;;5036203;28;20146;-74
2023/08/31 13:27:18;;;;;;;7.47;1.70;;;;;;;;;;5036047;28;20040;-74
2023/08/31 13:29:45;;;;;;;7.60;1.90;;;;;;;;;;5033420;28;20387;-75
2023/08/31 13:32:11;;;;;;;7.30;1.55;;;;;;;;;;5038592;28;20036;-75
2023/08/31 13:34:37;;;;;;;5.10;1.45;;;;;;;;;;5032879;28;20024;-75
2023/08/31 13:37:04;;;;;;;5.70;1.50;;;;;;;;;;5035826;28;20048;-76
2023/08/31 13:39:36;;;;;;;6.25;1.95;;;;;;;;;;5037383;28;20476;-76
2023/08/31 13:42:03;;;;;;;6.55;1.73;;;;;;;;;;5035884;28;20162;-74
2023/08/31 13:44:31;;;;;;;4.53;1.50;;;;;;;;;;5031800;28;20050;-74
2023/08/31 13:46:57;;;;;;;4.38;1.50;;;;;;;;;;5037027;28;20329;-75
2023/08/31 13:49:23;;;;;;;4.10;1.50;;;;;;;;;;5026560;28;20480;-75
2023/08/31 13:51:49;;;;;;;6.03;1.83;;;;;;;;;;5037626;28;20141;-75
2023/08/31 13:54:15;;;;;;;5.15;1.80;;;;;;;;;;5040333;28;20421;-75
2023/08/31 13:56:42;;;;;;;5.22;1.70;;;;;;;;;;5038292;28;20094;-74
2023/08/31 13:59:09;;;;;;;4.20;1.33;;;;;;;;;;5039630;28;20110;-75
2023/08/31 14:01:35;;;;;;;6.32;1.92;;;;;;;;;;5032322;28;20035;-75
2023/08/31 14:04:03;;;;;;;6.88;1.85;;;;;;;;;;5034763;28;21272;-75
2023/08/31 14:06:30;;;;;;;5.80;1.83;;;;;;;;;;5033399;28;20090;-75
2023/08/31 14:08:56;;;;;;;6.72;1.80;;;;;;;;;;5043679;28;20808;-75
2023/08/31 14:11:22;;;;;;;6.53;2.10;;;;;;;;;;5036471;28;20032;-75
2023/08/31 14:13:49;;;;;;;8.32;2.10;;;;;;;;;;5036274;28;20143;-75
2023/08/31 14:16:15;;;;;;;7.72;2.10;;;;;;;;;;5039767;28;20479;-75
2023/08/31 14:18:41;;;;;;;6.50;1.90;;;;;;;;;;5035748;28;20514;-75
2023/08/31 14:21:07;;;;;;;7.45;2.00;;;;;;;;;;5038168;28;20028;-76
2023/08/31 14:23:33;;;;;;;6.43;1.98;;;;;;;;;;5037420;28;20335;-75
2023/08/31 14:26:04;;;;;;;7.95;2.30;;;;;;;;;;5029859;28;20033;-75
2023/08/31 14:28:30;;;;;;;5.38;1.85;;;;;;;;;;5030132;28;20095;-75
2023/08/31 14:30:56;;;;;;;7.68;1.98;;;;;;;;;;5029073;28;20028;-75
2023/08/31 14:33:22;;;;;;;5.95;1.67;;;;;;;;;;5038119;28;20785;-75
2023/08/31 14:35:54;;;;;;;8.05;1.92;;;;;;;;;;5034753;28;20492;-75
2023/08/31 14:38:24;;;;;;;6.82;1.98;;;;;;;;;;5032036;28;20452;-76